Time;durP1;ratioP1;P1;durP2;ratioP2;P2;SDS_P1;SDS_P2;PMS_P1;PMS_P2;Temp;Humidity;BMP_temperature;BMP_pressure;BME280_temperature;BME280_humidity;BME280_pressure;Samples;Min_cycle;Max_cycle;Signal;HPM_P1;HPM_P2
2022/07/24 00:00:04;;;;;;;14.35;6.38;;;;;;;24.67;45.06;94565.47;5074590;28;20190;-87
2022/07/24 00:02:31;;;;;;;10.63;5.78;;;;;;;24.81;45.30;94586.16;5064007;28;20317;-88
2022/07/24 00:05:01;;;;;;;11.32;5.88;;;;;;;26.12;45.16;94790.84;5054200;28;20188;-89
2022/07/24 00:07:28;;;;;;;7.30;6.18;;;;;;;26.09;45.37;94781.63;5054254;28;20226;-89
2022/07/24 00:09:56;;;;;;;10.20;5.85;;;;;;;24.84;45.14;94591.75;5053958;28;20188;-87
2022/07/24 00:12:23;;;;;;;12.77;7.07;;;;;;;24.83;44.97;94605.84;5053755;28;20205;-88
2022/07/24 00:14:50;;;;;;;11.45;6.15;;;;;;;26.01;44.99;94789.84;5053654;28;20198;-89
2022/07/24 00:17:18;;;;;;;14.10;5.70;;;;;;;25.97;45.12;94788.72;5055217;28;20681;-89
2022/07/24 00:19:45;;;;;;;9.32;5.75;;;;;;;25.90;45.73;94780.19;5055296;28;20191;-89
2022/07/24 00:22:12;;;;;;;9.65;5.20;;;;;;;25.56;46.05;94732.84;5054534;28;20222;-88
2022/07/24 00:24:38;;;;;;;11.07;5.13;;;;;;;25.87;45.87;94778.84;5055374;28;20187;-88
2022/07/24 00:27:08;;;;;;;9.13;6.00;;;;;;;24.92;45.96;94653.41;5056714;28;20199;-87
2022/07/24 00:29:35;;;;;;;10.95;5.15;;;;;;;25.82;45.68;94783.16;5057583;28;20569;-88
2022/07/24 00:32:02;;;;;;;14.90;6.32;;;;;;;25.13;45.72;94681.66;5053385;28;20563;-88
2022/07/24 00:34:29;;;;;;;10.93;5.53;;;;;;;25.74;46.01;94782.47;5053717;28;20214;-88
2022/07/24 00:36:56;;;;;;;9.90;5.65;;;;;;;25.72;46.25;94778.47;5053458;28;20579;-88
2022/07/24 00:39:23;;;;;;;12.63;5.63;;;;;;;25.15;46.50;94699.72;5053904;28;20194;-88
2022/07/24 00:41:52;;;;;;;10.55;6.03;;;;;;;23.67;46.26;94472.22;5053490;28;20238;-87
2022/07/24 00:44:21;;;;;;;9.02;6.10;;;;;;;23.89;46.22;94505.63;5053501;28;20191;-87
2022/07/24 00:46:49;;;;;;;12.38;6.75;;;;;;;25.60;46.59;94773.22;5053682;28;20651;-88
2022/07/24 00:49:17;;;;;;;10.57;5.78;;;;;;;25.58;46.44;94777.91;5054017;28;20238;-89
2022/07/24 00:51:46;;;;;;;11.95;6.53;;;;;;;24.98;46.62;94682.06;5053682;28;20190;-89
2022/07/24 00:54:14;;;;;;;13.65;6.68;;;;;;;24.31;46.89;94586.56;5053213;28;20202;-89
2022/07/24 00:56:42;;;;;;;9.13;6.30;;;;;;;25.28;47.00;94736.16;5052589;28;20547;-86
2022/07/24 00:59:09;;;;;;;11.82;6.00;;;;;;;25.24;46.96;94738.41;5052893;28;20253;-89
2022/07/24 01:01:38;;;;;;;8.75;5.82;;;;;;;25.24;47.30;94745.47;5052278;28;20725;-88
2022/07/24 01:04:05;;;;;;;12.40;5.78;;;;;;;24.99;47.14;94709.81;5053180;28;20202;-88
2022/07/24 01:06:32;;;;;;;16.83;6.05;;;;;;;25.40;47.35;94772.81;5052893;28;20195;-89
2022/07/24 01:08:59;;;;;;;12.05;6.05;;;;;;;24.94;47.26;94709.69;5052876;28;20213;-88
2022/07/24 01:11:27;;;;;;;11.77;5.25;;;;;;;24.35;47.13;94617.25;5053116;28;20231;-88
2022/07/24 01:13:54;;;;;;;10.45;5.88;;;;;;;25.23;47.44;94765.63;5053295;28;20218;-87
2022/07/24 01:16:22;;;;;;;14.68;6.18;;;;;;;24.46;47.10;94645.28;5053851;28;20205;-89
2022/07/24 01:18:50;;;;;;;9.10;6.25;;;;;;;24.18;47.24;94603.25;5052453;28;20241;-87
2022/07/24 01:21:18;;;;;;;15.43;6.20;;;;;;;25.22;46.93;94760.63;5053041;28;20195;-87
2022/07/24 01:23:45;;;;;;;8.10;5.70;;;;;;;23.90;47.00;94569.91;5052889;28;20210;-87
2022/07/24 01:26:12;;;;;;;9.82;5.43;;;;;;;25.03;46.89;94734.50;5054220;28;20195;-90
2022/07/24 01:28:39;;;;;;;13.32;6.50;;;;;;;24.27;46.83;94621.00;5061478;28;20195;-88
2022/07/24 01:31:06;;;;;;;10.18;6.03;;;;;;;25.11;47.00;94762.19;5060293;28;20197;-88
2022/07/24 01:33:33;;;;;;;8.68;5.82;;;;;;;24.83;46.95;94717.53;5061602;28;20191;-87
2022/07/24 01:36:00;;;;;;;11.35;5.93;;;;;;;24.86;47.54;94727.53;5054199;28;20274;-88
2022/07/24 01:38:29;;;;;;;11.13;5.53;;;;;;;24.35;47.30;94648.63;5053289;28;20179;-89
2022/07/24 01:40:56;;;;;;;8.35;5.53;;;;;;;25.07;47.74;94766.25;5054086;28;20187;-89
2022/07/24 01:43:23;;;;;;;11.07;5.80;;;;;;;23.26;47.78;94492.00;5053134;28;20226;-89
2022/07/24 01:45:50;;;;;;;13.85;5.65;;;;;;;24.27;47.65;94655.00;5052802;28;20272;-88
2022/07/24 01:48:17;;;;;;;9.73;6.03;;;;;;;24.13;47.29;94621.41;5052251;28;20230;-89
2022/07/24 01:50:44;;;;;;;7.72;5.20;;;;;;;23.59;47.75;94545.59;5053719;28;20195;-88
2022/07/24 01:53:11;;;;;;;9.90;5.70;;;;;;;24.23;47.70;94645.19;5052903;28;20191;-89
2022/07/24 01:55:39;;;;;;;7.57;5.68;;;;;;;23.95;48.07;94604.78;5052354;28;20290;-89
2022/07/24 01:58:06;;;;;;;10.95;5.25;;;;;;;24.44;48.01;94691.78;5052526;28;20619;-89
2022/07/24 02:00:33;;;;;;;9.20;5.78;;;;;;;24.82;48.37;94748.13;5054698;28;20198;-89
2022/07/24 02:03:00;;;;;;;7.13;4.93;;;;;;;24.59;48.51;94711.47;5057744;28;20230;-89
2022/07/24 02:05:28;;;;;;;6.90;5.60;;;;;;;24.76;48.64;94741.97;5058390;28;20199;-90
2022/07/24 02:07:59;;;;;;;11.15;5.25;;;;;;;24.74;48.78;94744.03;5053397;28;20199;-87
2022/07/24 02:10:27;;;;;;;10.82;5.50;;;;;;;24.72;48.54;94747.88;5053210;28;20647;-88
2022/07/24 02:12:56;;;;;;;9.77;5.25;;;;;;;24.65;48.47;94745.34;5051935;28;20234;-87
2022/07/24 02:15:23;;;;;;;13.93;5.32;;;;;;;23.60;48.44;94596.00;5052430;28;20282;-88
2022/07/24 02:17:52;;;;;;;7.80;5.70;;;;;;;24.62;48.23;94748.44;5051674;28;20617;-89
2022/07/24 02:20:20;;;;;;;11.48;5.50;;;;;;;23.93;47.98;94645.22;5035418;28;20187;-88
2022/07/24 02:22:47;;;;;;;8.88;5.90;;;;;;;22.82;48.17;94472.28;5052507;28;20228;-89
2022/07/24 02:25:15;;;;;;;12.90;5.50;;;;;;;24.20;48.06;94692.69;5052256;28;20190;-89
2022/07/24 02:27:42;;;;;;;7.97;5.47;;;;;;;23.79;47.91;94644.56;5051685;28;20198;-87
2022/07/24 02:30:13;;;;;;;8.63;5.40;;;;;;;24.44;48.25;94735.44;5051133;28;20714;-88
2022/07/24 02:32:40;;;;;;;11.23;6.07;;;;;;;23.67;48.33;94620.25;5051984;28;20201;-87
2022/07/24 02:35:08;;;;;;;13.00;5.60;;;;;;;24.47;48.38;94761.09;5052811;28;20191;-87
2022/07/24 02:37:37;;;;;;;13.80;6.20;;;;;;;24.45;48.16;94763.16;5054657;28;20183;-88
2022/07/24 02:40:06;;;;;;;9.07;6.15;;;;;;;23.62;48.30;94636.53;5055010;28;20203;-89
2022/07/24 02:42:32;;;;;;;15.52;6.15;;;;;;;24.41;48.60;94764.63;5054855;28;20234;-88
2022/07/24 02:44:59;;;;;;;10.45;5.38;;;;;;;24.16;48.09;94726.28;5053527;28;20233;-88
2022/07/24 02:47:28;;;;;;;12.55;6.03;;;;;;;24.37;48.69;94766.88;5052525;28;20240;-88
2022/07/24 02:49:56;;;;;;;9.82;5.70;;;;;;;24.34;48.91;94759.44;5060391;28;20198;-87
2022/07/24 02:52:23;;;;;;;11.23;6.65;;;;;;;24.03;48.69;94716.03;5058942;28;20294;-87
2022/07/24 02:54:50;;;;;;;10.48;6.00;;;;;;;24.29;48.81;94761.91;5054845;28;20201;-87
2022/07/24 02:57:17;;;;;;;14.85;6.65;;;;;;;24.26;48.80;94760.53;5055509;28;20205;-89
2022/07/24 02:59:49;;;;;;;10.30;5.57;;;;;;;24.23;49.35;94771.44;5056452;28;20286;-86
2022/07/24 03:02:16;;;;;;;9.80;6.25;;;;;;;24.22;49.35;94769.84;5052238;28;20215;-89
2022/07/24 03:04:45;;;;;;;8.75;5.50;;;;;;;23.60;49.76;94669.88;5051323;28;20225;-89
2022/07/24 03:07:12;;;;;;;6.60;5.63;;;;;;;24.17;49.48;94758.44;5051869;28;20281;-89
2022/07/24 03:09:39;;;;;;;12.02;5.78;;;;;;;23.47;49.89;94667.44;5051889;28;20662;-87
2022/07/24 03:12:06;;;;;;;11.45;5.80;;;;;;;24.13;50.33;94762.53;5050952;28;20270;-87
2022/07/24 03:14:33;;;;;;;13.30;6.25;;;;;;;23.88;50.19;94728.69;5051567;28;20691;-87
2022/07/24 03:17:00;;;;;;;12.27;6.15;;;;;;;24.06;50.29;94757.38;5051339;28;20195;-89
2022/07/24 03:19:27;;;;;;;12.48;6.03;;;;;;;22.61;50.51;94549.09;5052003;28;20682;-88
2022/07/24 03:21:56;;;;;;;9.70;5.82;;;;;;;22.50;50.75;94521.97;5051621;28;20183;-89
2022/07/24 03:24:23;;;;;;;13.13;6.53;;;;;;;23.99;50.84;94764.50;5052011;28;20297;-89
2022/07/24 03:26:50;;;;;;;10.88;6.78;;;;;;;23.77;51.09;94735.41;5051848;28;20195;-89
2022/07/24 03:29:17;;;;;;;8.43;5.43;;;;;;;23.36;51.04;94663.75;5054444;28;20198;-88
2022/07/24 03:31:44;;;;;;;11.02;5.47;;;;;;;23.95;51.31;94764.13;5054861;28;20190;-87
2022/07/24 03:34:11;;;;;;;8.98;5.95;;;;;;;23.34;51.32;94659.75;5050229;28;20198;-88
2022/07/24 03:36:38;;;;;;;15.65;6.65;;;;;;;23.92;51.02;94754.13;5050176;28;20195;-88
2022/07/24 03:39:07;;;;;;;12.00;5.90;;;;;;;23.51;51.55;94705.16;5050147;28;20201;-89
2022/07/24 03:41:34;;;;;;;11.95;6.03;;;;;;;23.86;51.67;94757.63;5050293;28;20220;-89
2022/07/24 03:44:04;;;;;;;12.65;6.03;;;;;;;23.87;51.74;94763.63;5053556;28;20980;-90
2022/07/24 03:46:31;;;;;;;9.07;6.95;;;;;;;23.87;51.65;94759.19;5054531;28;20294;-89
2022/07/24 03:48:59;;;;;;;16.45;6.65;;;;;;;23.86;52.01;94760.22;5049826;28;20273;-88
2022/07/24 03:51:26;;;;;;;11.25;5.95;;;;;;;23.60;52.02;94716.88;5050660;28;20195;-89
2022/07/24 03:53:53;;;;;;;9.50;5.88;;;;;;;23.85;52.28;94752.63;5050206;28;20195;-89
2022/07/24 03:56:22;;;;;;;9.75;5.97;;;;;;;23.83;52.22;94749.41;5051022;28;20673;-89
2022/07/24 03:58:49;;;;;;;10.55;6.30;;;;;;;23.85;52.34;94750.78;5050410;28;20286;-89
2022/07/24 04:01:16;;;;;;;16.67;6.13;;;;;;;23.64;52.68;94725.09;5050251;28;20191;-88
2022/07/24 04:03:43;;;;;;;12.68;6.20;;;;;;;23.84;53.22;94749.22;5049920;28;20305;-90
2022/07/24 04:06:10;;;;;;;12.82;6.20;;;;;;;23.48;52.96;94695.13;5050385;28;20205;-90
2022/07/24 04:08:38;;;;;;;13.90;6.00;;;;;;;22.78;52.50;94591.84;5050133;28;20674;-89
2022/07/24 04:11:07;;;;;;;19.40;6.75;;;;;;;23.88;51.94;94755.59;5050802;28;20289;-88
2022/07/24 04:13:36;;;;;;;12.30;6.22;;;;;;;23.03;51.62;94628.34;5050707;28;20648;-90
2022/07/24 04:16:03;;;;;;;14.65;7.13;;;;;;;23.42;51.67;94677.75;5050024;28;20234;-89
2022/07/24 04:18:29;;;;;;;13.93;6.30;;;;;;;23.91;51.54;94762.97;5051167;28;20227;-89
2022/07/24 04:20:56;;;;;;;20.00;7.68;;;;;;;23.56;51.80;94714.94;5053565;28;20214;-88
2022/07/24 04:23:23;;;;;;;17.80;7.57;;;;;;;23.93;52.02;94755.72;5053846;28;20227;-89
2022/07/24 04:25:50;;;;;;;19.98;9.30;;;;;;;22.58;52.10;94556.56;5054481;28;20187;-88
2022/07/24 04:28:17;;;;;;;18.73;8.02;;;;;;;23.78;52.25;94734.41;5055380;28;20210;-90
2022/07/24 04:30:48;;;;;;;10.98;7.00;;;;;;;23.98;52.53;94765.53;5054798;28;20281;-88
2022/07/24 04:33:15;;;;;;;11.45;6.63;;;;;;;22.71;52.40;94569.47;5057074;28;20250;-89
2022/07/24 04:35:42;;;;;;;17.58;7.45;;;;;;;23.85;52.69;94736.94;5066110;28;20290;-88
2022/07/24 04:38:09;;;;;;;10.18;6.75;;;;;;;23.06;52.67;94606.28;5069637;28;20179;-87
2022/07/24 04:40:36;;;;;;;20.60;7.45;;;;;;;24.04;52.69;94756.78;5057513;28;20195;-90
2022/07/24 04:43:03;;;;;;;15.60;7.20;;;;;;;22.81;52.46;94569.78;5070998;28;20219;-87
2022/07/24 04:45:30;;;;;;;19.63;7.43;;;;;;;24.05;52.09;94753.19;5075826;28;20185;-86
2022/07/24 04:47:59;;;;;;;11.30;6.78;;;;;;;23.11;51.97;94616.84;5075259;28;20190;-87
2022/07/24 04:50:25;;;;;;;13.77;7.35;;;;;;;24.19;51.77;94778.13;5065931;28;20290;-87
2022/07/24 04:52:52;;;;;;;13.68;6.88;;;;;;;24.22;51.84;94769.84;5054405;28;20203;-88
2022/07/24 04:55:20;;;;;;;14.98;8.38;;;;;;;23.37;51.90;94631.41;5053746;28;20191;-87
2022/07/24 04:57:46;;;;;;;19.40;7.38;;;;;;;22.95;51.66;94568.66;5054781;28;20199;-90
2022/07/24 05:00:15;;;;;;;12.05;7.10;;;;;;;23.32;51.71;94612.22;5053204;28;20670;-89
2022/07/24 05:02:42;;;;;;;25.08;7.22;;;;;;;23.54;51.66;94637.63;5063414;28;20225;-89
2022/07/24 05:05:11;;;;;;;12.75;7.63;;;;;;;24.46;52.00;94777.81;5053729;28;20260;-88
2022/07/24 05:07:38;;;;;;;12.52;6.63;;;;;;;24.49;51.93;94780.00;5052644;28;20191;-89
2022/07/24 05:10:06;;;;;;;12.05;7.18;;;;;;;24.31;51.64;94746.81;5052749;28;20750;-87
2022/07/24 05:12:36;;;;;;;16.63;7.72;;;;;;;23.54;51.78;94618.56;5051931;28;20209;-89
2022/07/24 05:15:03;;;;;;;11.45;7.22;;;;;;;24.20;51.19;94711.78;5052403;28;20344;-89
2022/07/24 05:17:30;;;;;;;14.88;7.70;;;;;;;22.57;50.64;94461.94;5053073;28;20334;-89
2022/07/24 05:20:00;;;;;;;16.17;7.63;;;;;;;24.81;50.82;94791.00;5053353;28;20187;-88
2022/07/24 05:22:33;;;;;;;15.88;8.73;;;;;;;24.25;50.79;94698.81;5052662;28;20612;-88
2022/07/24 05:25:00;;;;;;;16.52;8.52;;;;;;;23.22;50.64;94524.78;5053801;28;20237;-89
2022/07/24 05:27:40;;;;;;;13.85;8.73;;;;;;;23.92;50.60;94604.41;5057713;28;20198;-87
2022/07/24 05:30:08;;;;;;;12.73;7.43;;;;;;;25.22;51.79;94786.81;5064233;28;20216;-88
2022/07/24 05:32:37;;;;;;;8.80;7.45;;;;;;;24.99;51.14;94735.19;5055042;28;20210;-88
2022/07/24 05:35:05;;;;;;;15.43;8.65;;;;;;;25.48;50.18;94783.75;5053004;28;20198;-88
2022/07/24 05:37:33;;;;;;;12.70;8.43;;;;;;;25.65;49.65;94777.81;5052667;28;20621;-88
2022/07/24 05:40:00;;;;;;;17.33;9.70;;;;;;;24.81;49.95;94625.41;5054251;28;20206;-88
2022/07/24 05:42:27;;;;;;;12.77;8.25;;;;;;;25.61;49.21;94732.94;5052386;28;20680;-89
2022/07/24 05:44:54;;;;;;;14.32;8.25;;;;;;;26.12;48.43;94777.72;5051989;28;20228;-88
2022/07/24 05:47:24;;;;;;;10.77;7.78;;;;;;;26.27;48.30;94778.84;5051665;28;20197;-88
2022/07/24 05:49:51;;;;;;;16.63;8.13;;;;;;;25.45;48.36;94621.03;5052162;28;20281;-88
2022/07/24 05:52:17;;;;;;;16.67;8.00;;;;;;;26.63;47.15;94781.34;5052092;28;20203;-89
2022/07/24 05:54:46;;;;;;;15.57;7.85;;;;;;;25.82;46.59;94620.69;5052178;28;20195;-89
2022/07/24 05:57:13;;;;;;;11.90;7.53;;;;;;;26.81;46.47;94761.97;5052731;28;20297;-88
2022/07/24 05:59:40;;;;;;;17.58;7.70;;;;;;;25.78;46.11;94557.53;5035008;28;20191;-88
2022/07/24 06:02:07;;;;;;;12.73;7.40;;;;;;;26.35;46.35;94622.16;5058679;28;20253;-88
2022/07/24 06:04:35;;;;;;;14.85;7.85;;;;;;;27.44;46.38;94763.53;5076189;28;20240;-88
2022/07/24 06:07:03;;;;;;;12.93;7.70;;;;;;;27.62;45.24;94770.34;5077039;28;20198;-87
2022/07/24 06:09:30;;;;;;;15.02;7.90;;;;;;;27.61;44.26;94774.81;5077133;28;20251;-91
2022/07/24 06:11:58;;;;;;;15.07;7.70;;;;;;;26.85;44.48;94660.75;5067854;28;20239;-91
2022/07/24 06:14:28;;;;;;;13.32;7.82;;;;;;;27.34;44.14;94688.00;5063547;28;20199;-87
2022/07/24 06:19:37;;;;;;;15.90;8.52;;;;;;;27.67;43.48;94718.63;5062021;28;20201;-89
2022/07/24 06:22:04;;;;;;;15.45;7.68;;;;;;;27.02;43.47;94607.19;5058601;28;20195;-88
2022/07/24 06:24:31;;;;;;;19.95;8.75;;;;;;;28.02;43.08;94730.66;5057196;28;20218;-89
2022/07/24 06:26:59;;;;;;;16.33;7.90;;;;;;;27.79;42.83;94670.44;5054083;28;20183;-88
2022/07/24 06:29:29;;;;;;;14.05;7.80;;;;;;;28.12;42.32;94709.75;5057868;28;20205;-89
2022/07/24 06:31:56;;;;;;;13.65;8.07;;;;;;;28.45;41.42;94734.28;5052248;28;20195;-88
2022/07/24 06:34:25;;;;;;;15.35;8.82;;;;;;;27.57;41.09;94591.59;5052276;28;20210;-90
2022/07/24 06:36:55;;;;;;;13.80;7.80;;;;;;;28.44;41.19;94724.81;5054333;28;20194;-89
2022/07/24 06:39:21;;;;;;;17.48;7.78;;;;;;;27.52;41.03;94568.69;5062431;28;20269;-89
2022/07/24 06:41:52;;;;;;;18.77;8.23;;;;;;;28.63;41.37;94714.75;5074976;28;20243;-90
2022/07/24 06:44:20;;;;;;;9.43;6.95;;;;;;;28.96;41.07;94761.91;5075754;28;20211;-87
2022/07/24 06:46:47;;;;;;;16.33;8.35;;;;;;;28.14;41.30;94612.19;5076395;28;20213;-89
2022/07/24 06:49:16;;;;;;;12.65;7.70;;;;;;;28.52;41.06;94636.75;5070039;28;20650;-88
2022/07/24 06:51:43;;;;;;;14.10;8.27;;;;;;;29.32;40.55;94749.03;5059853;28;20203;-87
2022/07/24 06:54:10;;;;;;;15.18;8.05;;;;;;;29.08;40.83;94690.63;5058230;28;20183;-90
2022/07/24 06:56:39;;;;;;;15.63;7.68;;;;;;;29.10;40.37;94706.16;5054664;28;20203;-88
2022/07/24 06:59:06;;;;;;;14.88;7.70;;;;;;;27.87;40.51;94504.44;5055873;28;20572;-88
2022/07/24 07:01:44;;;;;;;14.40;7.40;;;;;;;29.50;41.50;94713.56;5054928;28;20198;-87
2022/07/24 07:04:28;;;;;;;17.67;7.53;;;;;;;28.29;41.10;94501.06;5056554;28;20312;-87
2022/07/24 07:06:55;;;;;;;11.32;6.97;;;;;;;29.23;40.46;94634.59;5050859;28;20574;-88
2022/07/24 07:09:22;;;;;;;14.60;7.60;;;;;;;29.36;40.08;94643.88;5051720;28;20293;-88
2022/07/24 07:11:52;;;;;;;13.02;7.55;;;;;;;30.13;39.79;94737.31;5052838;28;20191;-88
2022/07/24 07:14:19;;;;;;;11.18;7.18;;;;;;;29.89;39.70;94682.38;5052618;28;20194;-90
2022/07/24 07:16:48;;;;;;;12.55;7.93;;;;;;;29.11;39.57;94542.66;5034642;28;20202;-90
2022/07/24 07:19:18;;;;;;;13.63;7.47;;;;;;;30.36;38.42;94728.97;5052182;28;20234;-89
2022/07/24 07:21:46;;;;;;;12.70;7.03;;;;;;;29.11;38.44;94524.22;5052647;28;20274;-86
2022/07/24 07:24:13;;;;;;;9.63;7.10;;;;;;;30.65;38.34;94741.69;5052279;28;20376;-88
2022/07/24 07:26:40;;;;;;;18.05;8.02;;;;;;;30.71;38.27;94728.25;5052430;28;20258;-88
2022/07/24 07:29:07;;;;;;;17.50;7.72;;;;;;;30.36;38.37;94699.94;5051313;28;20195;-88
2022/07/24 07:31:36;;;;;;;19.77;8.57;;;;;;;30.77;37.93;94744.09;5050285;28;20199;-88
2022/07/24 07:34:07;;;;;;;10.05;7.05;;;;;;;30.65;37.57;94712.63;5050827;28;20707;-89
2022/07/24 07:36:37;;;;;;;13.77;6.35;;;;;;;30.80;38.24;94710.06;5051114;28;20206;-83
2022/07/24 07:39:06;;;;;;;10.85;7.47;;;;;;;31.08;37.37;94743.06;5050240;28;20214;-83
2022/07/24 07:41:33;;;;;;;15.65;7.60;;;;;;;30.98;37.42;94727.22;5037404;28;20552;-83
2022/07/24 07:44:01;;;;;;;12.32;7.80;;;;;;;31.09;37.62;94733.28;5027655;28;20227;-84
2022/07/24 07:46:28;;;;;;;15.70;7.10;;;;;;;31.19;38.48;94728.78;5027510;28;20195;-85
2022/07/24 07:48:55;;;;;;;13.88;7.80;;;;;;;31.09;37.71;94702.38;5028025;28;20215;-84
2022/07/24 07:51:23;;;;;;;13.63;7.65;;;;;;;31.21;37.79;94702.88;5027466;28;20202;-86
2022/07/24 07:53:50;;;;;;;9.73;7.07;;;;;;;31.22;38.02;94691.28;5032898;28;20663;-89
2022/07/24 07:56:17;;;;;;;14.18;8.15;;;;;;;31.50;36.87;94714.75;5036929;28;20200;-92
2022/07/24 07:58:44;;;;;;;19.15;9.18;;;;;;;30.28;37.02;94521.03;5033730;28;20605;-92
2022/07/24 08:01:11;;;;;;;11.40;7.07;;;;;;;31.80;37.44;94741.13;5032605;28;20577;-87
2022/07/24 08:03:38;;;;;;;12.70;7.68;;;;;;;31.58;37.05;94704.44;5031104;28;20218;-84
2022/07/24 08:06:05;;;;;;;19.10;7.35;;;;;;;31.81;37.01;94715.44;5030971;28;20196;-85
2022/07/24 08:08:33;;;;;;;11.77;7.05;;;;;;;32.09;36.62;94754.53;5032113;28;20184;-84
2022/07/24 08:11:00;;;;;;;16.33;7.47;;;;;;;32.22;36.28;94742.56;5034868;28;20202;-83
2022/07/24 08:13:27;;;;;;;13.05;7.40;;;;;;;32.32;36.07;94737.22;5035115;28;20191;-84
2022/07/24 08:15:54;;;;;;;17.90;7.75;;;;;;;32.38;36.45;94730.84;5034353;28;20192;-83
2022/07/24 08:18:21;;;;;;;17.05;8.55;;;;;;;32.10;36.02;94671.44;5031761;28;20232;-84
2022/07/24 08:20:48;;;;;;;13.00;7.78;;;;;;;32.07;35.08;94636.78;5036105;28;20741;-84
2022/07/24 08:23:15;;;;;;;11.48;7.95;;;;;;;32.36;35.69;94676.56;5032586;28;20191;-85
2022/07/24 08:25:43;;;;;;;14.27;7.53;;;;;;;32.93;35.83;94746.69;5031820;28;20306;-84
2022/07/24 08:28:10;;;;;;;16.10;7.30;;;;;;;33.03;35.50;94740.50;5030889;28;20564;-84
2022/07/24 08:30:37;;;;;;;11.27;6.47;;;;;;;32.94;35.09;94711.94;5032905;28;20199;-89
2022/07/24 08:33:04;;;;;;;12.20;7.57;;;;;;;33.24;34.75;94739.25;5033878;28;20196;-90
2022/07/24 08:35:31;;;;;;;14.50;7.95;;;;;;;32.76;34.88;94659.63;5033296;28;20188;-90
2022/07/24 08:37:58;;;;;;;18.23;7.85;;;;;;;33.31;34.95;94742.38;5036291;28;20207;-88
2022/07/24 08:40:25;;;;;;;16.73;7.43;;;;;;;33.29;34.95;94733.13;5033463;28;20203;-91
2022/07/24 08:42:53;;;;;;;14.70;7.15;;;;;;;32.20;34.29;94546.97;5033338;28;20188;-91
2022/07/24 08:45:20;;;;;;;14.15;8.48;;;;;;;32.94;34.16;94658.94;5032838;28;20602;-89
2022/07/24 08:47:50;;;;;;;13.40;7.82;;;;;;;33.42;34.42;94730.63;5041784;28;20196;-90
2022/07/24 08:50:17;;;;;;;14.13;7.95;;;;;;;33.01;34.36;94677.19;5045288;28;20200;-91
2022/07/24 08:52:45;;;;;;;13.43;7.72;;;;;;;33.41;34.27;94726.38;5040711;28;20214;-89
2022/07/24 08:55:12;;;;;;;14.63;7.22;;;;;;;32.53;33.94;94594.16;5042816;28;20210;-89
2022/07/24 08:57:39;;;;;;;19.90;8.57;;;;;;;33.39;34.88;94725.88;5045090;28;20286;-85
2022/07/24 09:00:09;;;;;;;13.55;8.55;;;;;;;31.99;34.23;94505.84;5043627;28;20192;-86
2022/07/24 09:02:37;;;;;;;18.60;7.90;;;;;;;33.32;34.37;94721.97;5045103;28;20231;-87
2022/07/24 09:05:05;;;;;;;18.00;8.80;;;;;;;33.33;34.52;94726.19;5033238;28;20242;-89
2022/07/24 09:07:32;;;;;;;13.18;7.57;;;;;;;33.33;34.61;94728.84;5035167;28;20286;-85
2022/07/24 09:10:01;;;;;;;13.95;7.95;;;;;;;33.20;34.78;94706.44;5031124;28;20208;-84
2022/07/24 09:12:32;;;;;;;12.25;7.85;;;;;;;32.70;35.06;94623.66;5029877;28;20199;-87
2022/07/24 09:15:00;;;;;;;12.15;7.10;;;;;;;32.81;34.65;94627.00;5030161;28;20269;-86
2022/07/24 09:17:29;;;;;;;12.20;7.45;;;;;;;33.47;34.74;94723.72;5030104;28;20192;-86
2022/07/24 09:19:58;;;;;;;17.52;8.70;;;;;;;33.52;34.82;94721.81;5030271;28;20574;-85
2022/07/24 09:22:34;;;;;;;15.23;8.18;;;;;;;32.11;34.77;94490.41;5029154;28;20207;-85
2022/07/24 09:25:06;;;;;;;11.70;7.97;;;;;;;32.72;34.65;94566.66;5029292;28;20227;-85
2022/07/24 09:27:33;;;;;;;17.25;7.82;;;;;;;33.07;34.83;94624.91;5029988;28;20551;-85
2022/07/24 09:30:01;;;;;;;16.20;8.00;;;;;;;32.79;35.15;94578.81;5029955;28;20196;-84
2022/07/24 09:32:29;;;;;;;13.88;7.97;;;;;;;32.89;34.89;94589.31;5030010;28;20218;-85
2022/07/24 09:34:56;;;;;;;13.20;7.18;;;;;;;33.77;34.87;94717.31;5029530;28;20290;-87
2022/07/24 09:37:26;;;;;;;13.68;7.60;;;;;;;33.68;34.88;94702.00;5029086;28;20226;-88
2022/07/24 09:40:06;;;;;;;13.18;7.45;;;;;;;33.48;34.81;94667.75;5030007;28;20338;-88
2022/07/24 09:42:38;;;;;;;13.90;7.70;;;;;;;33.85;34.34;94721.97;5029446;28;20279;-86
2022/07/24 09:45:10;;;;;;;11.00;7.15;;;;;;;33.58;34.59;94664.97;5029887;28;20227;-88
2022/07/24 09:47:41;;;;;;;9.27;7.22;;;;;;;33.75;34.54;94675.13;5028731;28;20219;-91
2022/07/24 09:50:17;;;;;;;13.63;7.70;;;;;;;34.01;34.52;94717.28;5029853;28;20198;-81
2022/07/24 09:52:47;;;;;;;11.43;6.90;;;;;;;33.89;33.79;94675.19;5030268;28;20208;-84
2022/07/24 09:55:26;;;;;;;8.00;7.00;;;;;;;34.06;33.83;94704.75;5033452;28;20202;-82
2022/07/24 09:57:53;;;;;;;9.85;7.10;;;;;;;33.55;33.95;94622.28;5049711;28;20209;-85
2022/07/24 10:00:21;;;;;;;14.18;7.28;;;;;;;33.38;33.72;94594.38;5050420;28;20213;-84
2022/07/24 10:02:58;;;;;;;11.70;7.07;;;;;;;33.84;33.61;94664.66;5055214;28;20183;-83
2022/07/24 10:05:28;;;;;;;14.82;6.97;;;;;;;34.14;34.51;94700.66;5051260;28;20223;-86
2022/07/24 10:07:57;;;;;;;13.50;7.53;;;;;;;33.86;34.73;94644.75;5050199;28;20183;-89
2022/07/24 10:10:29;;;;;;;11.70;7.53;;;;;;;33.41;34.58;94574.44;5049763;28;20260;-85
2022/07/24 10:12:56;;;;;;;12.18;6.70;;;;;;;33.36;35.32;94558.59;5051077;28;20185;-84
2022/07/24 10:15:30;;;;;;;12.30;6.97;;;;;;;33.53;34.50;94588.13;5050134;28;20574;-89
2022/07/24 10:18:19;;;;;;;14.05;7.57;;;;;;;34.24;33.97;94691.75;5050006;28;20231;-84
2022/07/24 10:20:47;;;;;;;10.10;6.97;;;;;;;33.43;34.06;94567.00;5050640;28;20867;-91
2022/07/24 10:23:41;;;;;;;14.30;6.95;;;;;;;34.28;34.58;94690.91;5049805;28;20206;-84
2022/07/24 10:26:11;;;;;;;11.85;7.68;;;;;;;34.34;33.35;94681.03;5049490;28;20222;-83
2022/07/24 10:28:41;;;;;;;12.07;7.45;;;;;;;34.38;33.07;94690.00;5048739;28;20631;-84
2022/07/24 10:31:13;;;;;;;8.98;6.50;;;;;;;33.75;32.86;94595.53;5048415;28;20195;-85
2022/07/24 10:33:49;;;;;;;11.38;6.53;;;;;;;33.12;32.87;94485.22;5048881;28;20270;-85
2022/07/24 10:36:26;;;;;;;12.40;6.93;;;;;;;33.08;32.40;94473.59;5048563;28;20203;-85
2022/07/24 10:39:01;;;;;;;10.82;7.43;;;;;;;34.43;32.31;94676.63;5048830;28;20202;-86
2022/07/24 10:41:31;;;;;;;15.75;6.63;;;;;;;33.64;32.71;94543.69;5048685;28;20639;-86
2022/07/24 10:44:18;;;;;;;8.10;6.07;;;;;;;34.37;32.54;94657.34;5049215;28;20190;-87
2022/07/24 10:47:16;;;;;;;6.68;6.07;;;;;;;34.20;32.56;94623.31;5050936;28;20198;-89
2022/07/24 10:49:55;;;;;;;12.63;7.10;;;;;;;34.58;32.41;94678.28;5052773;28;20226;-87
2022/07/24 10:52:28;;;;;;;7.32;6.15;;;;;;;34.14;31.92;94594.47;5049686;28;20186;-88
2022/07/24 10:55:21;;;;;;;7.40;6.07;;;;;;;34.66;31.57;94670.44;5051002;28;20195;-88
2022/07/24 10:57:56;;;;;;;10.80;5.97;;;;;;;34.38;31.70;94607.66;5049847;28;20198;-86
2022/07/24 11:00:27;;;;;;;8.43;5.45;;;;;;;34.74;31.16;94654.94;5050869;28;20206;-86
2022/07/24 11:03:03;;;;;;;7.82;6.05;;;;;;;33.74;31.24;94495.00;5054417;28;20217;-85
2022/07/24 11:05:39;;;;;;;9.10;5.80;;;;;;;34.59;31.35;94621.44;5058238;28;20234;-90
2022/07/24 11:08:42;;;;;;;8.45;6.50;;;;;;;34.31;30.91;94580.69;5063930;28;20201;-90
2022/07/24 11:11:18;;;;;;;10.73;5.82;;;;;;;34.42;31.71;94579.44;4999796;28;20201;-85
2022/07/24 11:13:51;;;;;;;9.30;6.15;;;;;;;34.76;31.03;94627.00;5002453;28;20204;-83
2022/07/24 11:16:26;;;;;;;8.77;6.82;;;;;;;33.60;30.72;94436.59;5000893;28;20300;-87
2022/07/24 11:19:31;;;;;;;10.52;5.63;;;;;;;34.97;31.17;94642.59;5002616;28;20232;-86
2022/07/24 11:22:14;;;;;;;8.45;6.50;;;;;;;34.36;31.39;94548.72;4991395;28;20698;-92
2022/07/24 11:25:09;;;;;;;9.10;5.93;;;;;;;34.97;30.92;94645.25;4992361;28;20342;-92
2022/07/24 11:27:56;;;;;;;9.77;6.25;;;;;;;34.91;31.06;94628.59;4994141;28;20196;-91
2022/07/24 11:30:24;;;;;;;11.20;6.75;;;;;;;35.00;31.14;94631.41;4995625;28;20199;-90
2022/07/24 11:32:51;;;;;;;8.00;5.93;;;;;;;34.82;31.38;94609.09;4993634;28;20207;-90
2022/07/24 11:35:31;;;;;;;10.07;6.53;;;;;;;34.50;31.71;94552.25;5000740;28;20255;-91
2022/07/24 11:38:02;;;;;;;8.80;6.38;;;;;;;34.20;31.77;94495.91;4995735;28;20348;-92